sensor_id;sensor_type;location;lat;lon;timestamp;P1;durP1;ratioP1;P2;durP2;ratioP2
22201;SDS011;11266;51.522;6.302;2022-10-31T00:00:27;7.97;;;4.40;;
22201;SDS011;11266;51.522;6.302;2022-10-31T00:01:14;8.15;;;4.07;;
22201;SDS011;11266;51.522;6.302;2022-10-31T00:02:03;10.85;;;4.60;;
22201;SDS011;11266;51.522;6.302;2022-10-31T00:02:49;7.63;;;4.70;;
22201;SDS011;11266;51.522;6.302;2022-10-31T00:03:35;7.45;;;4.43;;
22201;SDS011;11266;51.522;6.302;2022-10-31T00:04:21;8.15;;;4.45;;
22201;SDS011;11266;51.522;6.302;2022-10-31T00:05:07;7.72;;;4.80;;
22201;SDS011;11266;51.522;6.302;2022-10-31T00:05:53;9.48;;;4.97;;
22201;SDS011;11266;51.522;6.302;2022-10-31T00:06:39;6.25;;;4.13;;
22201;SDS011;11266;51.522;6.302;2022-10-31T00:07:25;7.75;;;4.80;;
22201;SDS011;11266;51.522;6.302;2022-10-31T00:08:11;6.38;;;4.72;;
22201;SDS011;11266;51.522;6.302;2022-10-31T00:08:59;10.38;;;4.85;;
22201;SDS011;11266;51.522;6.302;2022-10-31T00:09:47;7.13;;;4.72;;
22201;SDS011;11266;51.522;6.302;2022-10-31T00:10:33;6.43;;;4.50;;
22201;SDS011;11266;51.522;6.302;2022-10-31T00:11:22;7.65;;;4.93;;
22201;SDS011;11266;51.522;6.302;2022-10-31T00:12:10;6.45;;;4.35;;
22201;SDS011;11266;51.522;6.302;2022-10-31T00:12:56;5.75;;;4.38;;
22201;SDS011;11266;51.522;6.302;2022-10-31T00:13:42;6.60;;;4.28;;
22201;SDS011;11266;51.522;6.302;2022-10-31T00:14:28;7.13;;;4.22;;
22201;SDS011;11266;51.522;6.302;2022-10-31T00:15:14;9.60;;;5.50;;
22201;SDS011;11266;51.522;6.302;2022-10-31T00:16:00;8.35;;;4.68;;
22201;SDS011;11266;51.522;6.302;2022-10-31T00:16:46;8.60;;;4.63;;
22201;SDS011;11266;51.522;6.302;2022-10-31T00:17:34;7.13;;;5.05;;
22201;SDS011;11266;51.522;6.302;2022-10-31T00:18:20;6.93;;;4.82;;
22201;SDS011;11266;51.522;6.302;2022-10-31T00:19:07;7.68;;;5.13;;
22201;SDS011;11266;51.522;6.302;2022-10-31T00:19:53;10.30;;;5.40;;
22201;SDS011;11266;51.522;6.302;2022-10-31T00:20:39;7.32;;;4.53;;
22201;SDS011;11266;51.522;6.302;2022-10-31T00:21:25;8.35;;;5.05;;
22201;SDS011;11266;51.522;6.302;2022-10-31T00:22:11;6.90;;;4.93;;
22201;SDS011;11266;51.522;6.302;2022-10-31T00:23:00;6.95;;;4.85;;
22201;SDS011;11266;51.522;6.302;2022-10-31T00:23:46;8.65;;;4.20;;
22201;SDS011;11266;51.522;6.302;2022-10-31T00:24:32;11.02;;;5.45;;
22201;SDS011;11266;51.522;6.302;2022-10-31T00:25:18;9.75;;;5.05;;
22201;SDS011;11266;51.522;6.302;2022-10-31T00:26:05;6.80;;;4.70;;
22201;SDS011;11266;51.522;6.302;2022-10-31T00:26:51;9.10;;;5.05;;
22201;SDS011;11266;51.522;6.302;2022-10-31T00:27:37;7.68;;;4.57;;
22201;SDS011;11266;51.522;6.302;2022-10-31T00:28:23;6.03;;;4.35;;
22201;SDS011;11266;51.522;6.302;2022-10-31T00:29:09;8.07;;;5.13;;
22201;SDS011;11266;51.522;6.302;2022-10-31T00:29:55;7.57;;;4.63;;
22201;SDS011;11266;51.522;6.302;2022-10-31T00:30:41;6.05;;;4.18;;
22201;SDS011;11266;51.522;6.302;2022-10-31T00:31:27;7.80;;;4.88;;
22201;SDS011;11266;51.522;6.302;2022-10-31T00:32:13;7.95;;;4.40;;
22201;SDS011;11266;51.522;6.302;2022-10-31T00:32:59;6.63;;;4.60;;
22201;SDS011;11266;51.522;6.302;2022-10-31T00:33:45;6.68;;;4.53;;
22201;SDS011;11266;51.522;6.302;2022-10-31T00:34:31;9.85;;;5.50;;
22201;SDS011;11266;51.522;6.302;2022-10-31T00:35:17;10.25;;;4.60;;
22201;SDS011;11266;51.522;6.302;2022-10-31T00:36:04;8.40;;;5.40;;
22201;SDS011;11266;51.522;6.302;2022-10-31T00:36:50;10.32;;;5.13;;
22201;SDS011;11266;51.522;6.302;2022-10-31T00:37:36;8.88;;;5.72;;
22201;SDS011;11266;51.522;6.302;2022-10-31T00:38:22;7.00;;;5.25;;
22201;SDS011;11266;51.522;6.302;2022-10-31T00:39:08;9.90;;;5.38;;
22201;SDS011;11266;51.522;6.302;2022-10-31T00:39:54;8.50;;;5.28;;
22201;SDS011;11266;51.522;6.302;2022-10-31T00:40:40;7.18;;;5.32;;
22201;SDS011;11266;51.522;6.302;2022-10-31T00:41:26;10.70;;;5.05;;
22201;SDS011;11266;51.522;6.302;2022-10-31T00:42:12;8.68;;;5.28;;
22201;SDS011;11266;51.522;6.302;2022-10-31T00:42:58;8.50;;;5.60;;
22201;SDS011;11266;51.522;6.302;2022-10-31T00:43:44;7.88;;;5.07;;
22201;SDS011;11266;51.522;6.302;2022-10-31T00:44:30;6.88;;;4.93;;
22201;SDS011;11266;51.522;6.302;2022-10-31T00:45:16;8.73;;;5.32;;
22201;SDS011;11266;51.522;6.302;2022-10-31T00:46:02;6.90;;;5.20;;
22201;SDS011;11266;51.522;6.302;2022-10-31T00:46:49;9.05;;;4.97;;
22201;SDS011;11266;51.522;6.302;2022-10-31T00:47:35;8.25;;;4.80;;
22201;SDS011;11266;51.522;6.302;2022-10-31T00:48:21;8.73;;;5.15;;
22201;SDS011;11266;51.522;6.302;2022-10-31T00:49:07;8.48;;;5.20;;
22201;SDS011;11266;51.522;6.302;2022-10-31T00:49:53;7.65;;;4.90;;
22201;SDS011;11266;51.522;6.302;2022-10-31T00:50:39;8.73;;;5.28;;
22201;SDS011;11266;51.522;6.302;2022-10-31T00:51:25;6.72;;;4.80;;
22201;SDS011;11266;51.522;6.302;2022-10-31T00:52:11;8.70;;;5.68;;
22201;SDS011;11266;51.522;6.302;2022-10-31T00:52:57;8.95;;;5.05;;
22201;SDS011;11266;51.522;6.302;2022-10-31T00:53:43;10.48;;;5.32;;
22201;SDS011;11266;51.522;6.302;2022-10-31T00:54:29;8.13;;;5.25;;
22201;SDS011;11266;51.522;6.302;2022-10-31T00:55:18;7.32;;;4.68;;
22201;SDS011;11266;51.522;6.302;2022-10-31T00:56:04;8.07;;;5.10;;
22201;SDS011;11266;51.522;6.302;2022-10-31T00:56:50;8.60;;;5.53;;
22201;SDS011;11266;51.522;6.302;2022-10-31T00:57:36;9.05;;;5.35;;
22201;SDS011;11266;51.522;6.302;2022-10-31T00:58:22;12.32;;;5.63;;
22201;SDS011;11266;51.522;6.302;2022-10-31T00:59:08;9.50;;;5.18;;
22201;SDS011;11266;51.522;6.302;2022-10-31T00:59:54;6.65;;;4.80;;
22201;SDS011;11266;51.522;6.302;2022-10-31T01:00:40;9.02;;;5.25;;
22201;SDS011;11266;51.522;6.302;2022-10-31T01:01:26;11.60;;;5.28;;
22201;SDS011;11266;51.522;6.302;2022-10-31T01:02:12;10.32;;;5.70;;
22201;SDS011;11266;51.522;6.302;2022-10-31T01:02:58;9.25;;;5.65;;
22201;SDS011;11266;51.522;6.302;2022-10-31T01:03:44;9.02;;;5.13;;
22201;SDS011;11266;51.522;6.302;2022-10-31T01:04:30;7.88;;;5.05;;
22201;SDS011;11266;51.522;6.302;2022-10-31T01:05:16;9.43;;;5.32;;
22201;SDS011;11266;51.522;6.302;2022-10-31T01:06:04;8.77;;;4.95;;
22201;SDS011;11266;51.522;6.302;2022-10-31T01:06:50;6.18;;;4.78;;
22201;SDS011;11266;51.522;6.302;2022-10-31T01:07:36;6.65;;;4.70;;
22201;SDS011;11266;51.522;6.302;2022-10-31T01:08:22;7.90;;;5.10;;
22201;SDS011;11266;51.522;6.302;2022-10-31T01:09:08;8.63;;;5.43;;
22201;SDS011;11266;51.522;6.302;2022-10-31T01:09:54;13.32;;;5.50;;
22201;SDS011;11266;51.522;6.302;2022-10-31T01:10:40;7.32;;;5.10;;
22201;SDS011;11266;51.522;6.302;2022-10-31T01:11:26;9.20;;;4.93;;
22201;SDS011;11266;51.522;6.302;2022-10-31T01:12:12;7.97;;;5.20;;
22201;SDS011;11266;51.522;6.302;2022-10-31T01:12:58;7.95;;;5.47;;
22201;SDS011;11266;51.522;6.302;2022-10-31T01:13:45;8.80;;;5.47;;
22201;SDS011;11266;51.522;6.302;2022-10-31T01:14:31;7.82;;;4.97;;
22201;SDS011;11266;51.522;6.302;2022-10-31T01:15:20;10.30;;;5.55;;
22201;SDS011;11266;51.522;6.302;2022-10-31T01:16:07;7.00;;;4.75;;
22201;SDS011;11266;51.522;6.302;2022-10-31T01:16:53;7.78;;;4.97;;
22201;SDS011;11266;51.522;6.302;2022-10-31T01:17:39;10.30;;;5.63;;
22201;SDS011;11266;51.522;6.302;2022-10-31T01:18:26;8.10;;;5.10;;
22201;SDS011;11266;51.522;6.302;2022-10-31T01:19:12;10.13;;;5.53;;
22201;SDS011;11266;51.522;6.302;2022-10-31T01:20:00;12.80;;;5.68;;
22201;SDS011;11266;51.522;6.302;2022-10-31T01:20:46;6.43;;;5.03;;
22201;SDS011;11266;51.522;6.302;2022-10-31T01:21:32;9.25;;;5.35;;
22201;SDS011;11266;51.522;6.302;2022-10-31T01:22:18;10.27;;;5.88;;
22201;SDS011;11266;51.522;6.302;2022-10-31T01:23:04;9.15;;;5.82;;
22201;SDS011;11266;51.522;6.302;2022-10-31T01:23:50;8.93;;;5.25;;
22201;SDS011;11266;51.522;6.302;2022-10-31T01:24:36;7.05;;;5.10;;
22201;SDS011;11266;51.522;6.302;2022-10-31T01:25:22;8.57;;;5.90;;
22201;SDS011;11266;51.522;6.302;2022-10-31T01:26:10;10.77;;;5.18;;
22201;SDS011;11266;51.522;6.302;2022-10-31T01:26:56;7.93;;;5.32;;
22201;SDS011;11266;51.522;6.302;2022-10-31T01:27:42;7.35;;;5.80;;
22201;SDS011;11266;51.522;6.302;2022-10-31T01:28:28;7.35;;;5.60;;
22201;SDS011;11266;51.522;6.302;2022-10-31T01:29:14;7.95;;;5.18;;
22201;SDS011;11266;51.522;6.302;2022-10-31T01:30:00;10.20;;;5.40;;
22201;SDS011;11266;51.522;6.302;2022-10-31T01:30:46;9.23;;;5.45;;
22201;SDS011;11266;51.522;6.302;2022-10-31T01:31:33;8.50;;;5.00;;
22201;SDS011;11266;51.522;6.302;2022-10-31T01:32:19;7.47;;;5.38;;
22201;SDS011;11266;51.522;6.302;2022-10-31T01:33:05;9.35;;;5.80;;
22201;SDS011;11266;51.522;6.302;2022-10-31T01:33:51;7.65;;;5.13;;
22201;SDS011;11266;51.522;6.302;2022-10-31T01:34:40;10.73;;;6.10;;
22201;SDS011;11266;51.522;6.302;2022-10-31T01:35:26;8.00;;;5.18;;
22201;SDS011;11266;51.522;6.302;2022-10-31T01:36:58;8.73;;;5.47;;
22201;SDS011;11266;51.522;6.302;2022-10-31T01:37:44;9.63;;;5.97;;
22201;SDS011;11266;51.522;6.302;2022-10-31T01:38:30;8.70;;;5.78;;
22201;SDS011;11266;51.522;6.302;2022-10-31T01:39:16;9.52;;;5.20;;
22201;SDS011;11266;51.522;6.302;2022-10-31T01:40:02;7.50;;;4.80;;
22201;SDS011;11266;51.522;6.302;2022-10-31T01:40:48;8.20;;;5.22;;
22201;SDS011;11266;51.522;6.302;2022-10-31T01:41:36;8.57;;;5.50;;
22201;SDS011;11266;51.522;6.302;2022-10-31T01:42:22;9.85;;;6.15;;
22201;SDS011;11266;51.522;6.302;2022-10-31T01:43:14;9.15;;;5.50;;
22201;SDS011;11266;51.522;6.302;2022-10-31T01:44:02;9.25;;;5.53;;
22201;SDS011;11266;51.522;6.302;2022-10-31T01:44:52;10.13;;;5.55;;
22201;SDS011;11266;51.522;6.302;2022-10-31T01:45:38;8.40;;;5.68;;
22201;SDS011;11266;51.522;6.302;2022-10-31T01:46:33;7.78;;;5.40;;
22201;SDS011;11266;51.522;6.302;2022-10-31T01:47:21;8.25;;;5.38;;
22201;SDS011;11266;51.522;6.302;2022-10-31T01:48:11;8.88;;;5.78;;
22201;SDS011;11266;51.522;6.302;2022-10-31T01:49:00;9.00;;;5.10;;
22201;SDS011;11266;51.522;6.302;2022-10-31T01:50:36;8.88;;;5.43;;
22201;SDS011;11266;51.522;6.302;2022-10-31T01:51:23;8.63;;;5.57;;
22201;SDS011;11266;51.522;6.302;2022-10-31T01:52:16;7.80;;;5.18;;
22201;SDS011;11266;51.522;6.302;2022-10-31T01:53:04;11.52;;;5.30;;
22201;SDS011;11266;51.522;6.302;2022-10-31T01:53:51;11.35;;;5.70;;
22201;SDS011;11266;51.522;6.302;2022-10-31T01:54:41;7.40;;;5.22;;
22201;SDS011;11266;51.522;6.302;2022-10-31T01:55:30;7.45;;;4.97;;
22201;SDS011;11266;51.522;6.302;2022-10-31T01:56:18;9.57;;;5.18;;
22201;SDS011;11266;51.522;6.302;2022-10-31T01:57:04;9.55;;;5.35;;
22201;SDS011;11266;51.522;6.302;2022-10-31T01:57:51;9.23;;;5.60;;
22201;SDS011;11266;51.522;6.302;2022-10-31T01:58:39;9.55;;;5.68;;
22201;SDS011;11266;51.522;6.302;2022-10-31T01:59:26;9.23;;;5.72;;
22201;SDS011;11266;51.522;6.302;2022-10-31T02:00:16;8.60;;;5.22;;
22201;SDS011;11266;51.522;6.302;2022-10-31T02:01:02;6.18;;;4.63;;
22201;SDS011;11266;51.522;6.302;2022-10-31T02:01:49;7.88;;;5.13;;
22201;SDS011;11266;51.522;6.302;2022-10-31T02:02:36;8.38;;;5.22;;
22201;SDS011;11266;51.522;6.302;2022-10-31T02:03:22;9.88;;;5.28;;
22201;SDS011;11266;51.522;6.302;2022-10-31T02:04:08;9.25;;;5.47;;
22201;SDS011;11266;51.522;6.302;2022-10-31T02:04:54;7.03;;;5.15;;
22201;SDS011;11266;51.522;6.302;2022-10-31T02:05:41;8.13;;;5.75;;
22201;SDS011;11266;51.522;6.302;2022-10-31T02:06:33;8.68;;;5.47;;
22201;SDS011;11266;51.522;6.302;2022-10-31T02:07:30;8.77;;;5.82;;
22201;SDS011;11266;51.522;6.302;2022-10-31T02:08:20;8.57;;;5.30;;
22201;SDS011;11266;51.522;6.302;2022-10-31T02:09:09;10.90;;;5.57;;
22201;SDS011;11266;51.522;6.302;2022-10-31T02:09:56;10.88;;;5.97;;
22201;SDS011;11266;51.522;6.302;2022-10-31T02:10:42;10.00;;;5.82;;
22201;SDS011;11266;51.522;6.302;2022-10-31T02:11:29;8.90;;;5.53;;
22201;SDS011;11266;51.522;6.302;2022-10-31T02:12:15;8.50;;;5.70;;
22201;SDS011;11266;51.522;6.302;2022-10-31T02:13:02;9.60;;;5.97;;
22201;SDS011;11266;51.522;6.302;2022-10-31T02:13:51;9.00;;;5.53;;
22201;SDS011;11266;51.522;6.302;2022-10-31T02:14:37;9.57;;;5.80;;
22201;SDS011;11266;51.522;6.302;2022-10-31T02:15:24;8.75;;;5.53;;
22201;SDS011;11266;51.522;6.302;2022-10-31T02:16:10;7.40;;;5.43;;
22201;SDS011;11266;51.522;6.302;2022-10-31T02:16:56;8.38;;;5.35;;
22201;SDS011;11266;51.522;6.302;2022-10-31T02:17:43;9.80;;;5.70;;
22201;SDS011;11266;51.522;6.302;2022-10-31T02:18:29;8.73;;;5.47;;
22201;SDS011;11266;51.522;6.302;2022-10-31T02:19:18;6.85;;;5.35;;
22201;SDS011;11266;51.522;6.302;2022-10-31T02:20:17;7.68;;;5.32;;
22201;SDS011;11266;51.522;6.302;2022-10-31T02:21:15;9.65;;;5.53;;
22201;SDS011;11266;51.522;6.302;2022-10-31T02:22:05;8.80;;;5.88;;
22201;SDS011;11266;51.522;6.302;2022-10-31T02:24:15;9.50;;;5.43;;
22201;SDS011;11266;51.522;6.302;2022-10-31T02:26:16;8.88;;;6.22;;
22201;SDS011;11266;51.522;6.302;2022-10-31T02:28:52;9.52;;;6.00;;
22201;SDS011;11266;51.522;6.302;2022-10-31T02:29:55;9.95;;;5.93;;
22201;SDS011;11266;51.522;6.302;2022-10-31T02:33:44;7.72;;;5.43;;
22201;SDS011;11266;51.522;6.302;2022-10-31T02:34:36;9.35;;;5.90;;
22201;SDS011;11266;51.522;6.302;2022-10-31T02:36:59;8.13;;;5.80;;
22201;SDS011;11266;51.522;6.302;2022-10-31T02:37:48;8.05;;;4.50;;
22201;SDS011;11266;51.522;6.302;2022-10-31T02:38:38;8.63;;;5.93;;
22201;SDS011;11266;51.522;6.302;2022-10-31T02:40:21;7.18;;;5.13;;
22201;SDS011;11266;51.522;6.302;2022-10-31T02:42:51;10.55;;;5.68;;
22201;SDS011;11266;51.522;6.302;2022-10-31T08:45:20;14.88;;;9.27;;
22201;SDS011;11266;51.522;6.302;2022-10-31T08:46:06;15.50;;;9.05;;
22201;SDS011;11266;51.522;6.302;2022-10-31T08:46:53;20.45;;;10.50;;
22201;SDS011;11266;51.522;6.302;2022-10-31T08:47:39;23.10;;;9.50;;
22201;SDS011;11266;51.522;6.302;2022-10-31T08:48:25;14.93;;;8.85;;
22201;SDS011;11266;51.522;6.302;2022-10-31T08:49:11;17.52;;;9.70;;
22201;SDS011;11266;51.522;6.302;2022-10-31T08:49:57;16.15;;;9.50;;
22201;SDS011;11266;51.522;6.302;2022-10-31T08:50:44;14.77;;;8.73;;
22201;SDS011;11266;51.522;6.302;2022-10-31T08:51:30;14.98;;;9.13;;
22201;SDS011;11266;51.522;6.302;2022-10-31T08:52:22;15.10;;;9.10;;
22201;SDS011;11266;51.522;6.302;2022-10-31T08:53:15;15.43;;;9.48;;
22201;SDS011;11266;51.522;6.302;2022-10-31T08:54:01;13.38;;;9.18;;
22201;SDS011;11266;51.522;6.302;2022-10-31T08:54:47;17.65;;;9.00;;
22201;SDS011;11266;51.522;6.302;2022-10-31T08:55:33;19.70;;;10.68;;
22201;SDS011;11266;51.522;6.302;2022-10-31T08:56:20;19.52;;;9.77;;
22201;SDS011;11266;51.522;6.302;2022-10-31T08:57:07;15.35;;;9.45;;
22201;SDS011;11266;51.522;6.302;2022-10-31T08:57:56;14.40;;;9.00;;
22201;SDS011;11266;51.522;6.302;2022-10-31T08:58:42;21.10;;;9.77;;
22201;SDS011;11266;51.522;6.302;2022-10-31T08:59:28;18.05;;;8.90;;
22201;SDS011;11266;51.522;6.302;2022-10-31T09:00:14;15.32;;;8.65;;
22201;SDS011;11266;51.522;6.302;2022-10-31T09:01:00;14.35;;;8.38;;
22201;SDS011;11266;51.522;6.302;2022-10-31T09:01:46;18.88;;;8.95;;
22201;SDS011;11266;51.522;6.302;2022-10-31T09:02:35;16.80;;;9.52;;
22201;SDS011;11266;51.522;6.302;2022-10-31T09:03:24;17.90;;;9.07;;
22201;SDS011;11266;51.522;6.302;2022-10-31T09:04:10;15.90;;;9.18;;
22201;SDS011;11266;51.522;6.302;2022-10-31T09:04:56;15.63;;;8.82;;
22201;SDS011;11266;51.522;6.302;2022-10-31T09:05:42;16.15;;;8.88;;
22201;SDS011;11266;51.522;6.302;2022-10-31T09:06:29;12.68;;;8.60;;
22201;SDS011;11266;51.522;6.302;2022-10-31T09:07:15;19.30;;;9.38;;
22201;SDS011;11266;51.522;6.302;2022-10-31T09:08:01;14.25;;;9.20;;
22201;SDS011;11266;51.522;6.302;2022-10-31T09:08:48;18.10;;;9.60;;
22201;SDS011;11266;51.522;6.302;2022-10-31T09:09:34;16.35;;;8.48;;
22201;SDS011;11266;51.522;6.302;2022-10-31T09:10:20;17.98;;;9.98;;
22201;SDS011;11266;51.522;6.302;2022-10-31T09:11:06;19.10;;;9.70;;
22201;SDS011;11266;51.522;6.302;2022-10-31T09:11:52;12.90;;;8.80;;
22201;SDS011;11266;51.522;6.302;2022-10-31T09:12:38;17.23;;;9.60;;
22201;SDS011;11266;51.522;6.302;2022-10-31T09:13:24;13.88;;;7.97;;
22201;SDS011;11266;51.522;6.302;2022-10-31T09:14:10;16.17;;;9.30;;
22201;SDS011;11266;51.522;6.302;2022-10-31T09:14:56;15.77;;;8.75;;
22201;SDS011;11266;51.522;6.302;2022-10-31T09:15:42;14.18;;;8.60;;
22201;SDS011;11266;51.522;6.302;2022-10-31T09:16:29;17.85;;;8.38;;
22201;SDS011;11266;51.522;6.302;2022-10-31T09:17:15;13.65;;;8.23;;
22201;SDS011;11266;51.522;6.302;2022-10-31T09:18:01;14.95;;;9.48;;
22201;SDS011;11266;51.522;6.302;2022-10-31T09:18:47;15.43;;;8.90;;
22201;SDS011;11266;51.522;6.302;2022-10-31T09:19:33;19.15;;;8.85;;
22201;SDS011;11266;51.522;6.302;2022-10-31T09:20:20;18.65;;;9.50;;
22201;SDS011;11266;51.522;6.302;2022-10-31T09:21:07;13.93;;;8.25;;
22201;SDS011;11266;51.522;6.302;2022-10-31T09:21:56;12.70;;;8.13;;
22201;SDS011;11266;51.522;6.302;2022-10-31T09:22:42;13.75;;;8.90;;
22201;SDS011;11266;51.522;6.302;2022-10-31T09:23:28;12.18;;;7.88;;
22201;SDS011;11266;51.522;6.302;2022-10-31T09:24:14;14.25;;;8.98;;
22201;SDS011;11266;51.522;6.302;2022-10-31T09:25:00;13.95;;;8.25;;
22201;SDS011;11266;51.522;6.302;2022-10-31T09:25:46;16.27;;;7.90;;
22201;SDS011;11266;51.522;6.302;2022-10-31T09:26:33;21.17;;;8.73;;
22201;SDS011;11266;51.522;6.302;2022-10-31T09:27:19;12.90;;;7.93;;
22201;SDS011;11266;51.522;6.302;2022-10-31T09:28:05;16.13;;;8.48;;
22201;SDS011;11266;51.522;6.302;2022-10-31T09:28:52;13.30;;;8.88;;
22201;SDS011;11266;51.522;6.302;2022-10-31T09:29:38;14.32;;;8.35;;
22201;SDS011;11266;51.522;6.302;2022-10-31T09:30:24;13.85;;;7.85;;
22201;SDS011;11266;51.522;6.302;2022-10-31T09:31:10;14.02;;;8.60;;
22201;SDS011;11266;51.522;6.302;2022-10-31T09:31:56;15.77;;;8.48;;
22201;SDS011;11266;51.522;6.302;2022-10-31T09:32:42;13.68;;;8.48;;
22201;SDS011;11266;51.522;6.302;2022-10-31T09:33:28;14.25;;;7.85;;
22201;SDS011;11266;51.522;6.302;2022-10-31T09:34:14;14.38;;;8.88;;
22201;SDS011;11266;51.522;6.302;2022-10-31T09:35:00;14.00;;;8.25;;
22201;SDS011;11266;51.522;6.302;2022-10-31T09:35:49;17.20;;;8.27;;
22201;SDS011;11266;51.522;6.302;2022-10-31T09:36:38;16.88;;;9.40;;
22201;SDS011;11266;51.522;6.302;2022-10-31T09:37:24;12.95;;;8.60;;
22201;SDS011;11266;51.522;6.302;2022-10-31T09:38:11;19.83;;;9.90;;
22201;SDS011;11266;51.522;6.302;2022-10-31T09:38:59;22.58;;;9.32;;
22201;SDS011;11266;51.522;6.302;2022-10-31T09:39:45;13.02;;;8.10;;
22201;SDS011;11266;51.522;6.302;2022-10-31T09:43:09;14.48;;;8.82;;
22201;SDS011;11266;51.522;6.302;2022-10-31T09:44:06;14.57;;;9.07;;
22201;SDS011;11266;51.522;6.302;2022-10-31T09:45:53;13.43;;;8.90;;
22201;SDS011;11266;51.522;6.302;2022-10-31T09:47:46;11.60;;;8.45;;
22201;SDS011;11266;51.522;6.302;2022-10-31T09:50:41;12.27;;;8.05;;
22201;SDS011;11266;51.522;6.302;2022-10-31T09:51:30;19.25;;;9.63;;
22201;SDS011;11266;51.522;6.302;2022-10-31T09:52:18;11.63;;;7.65;;
22201;SDS011;11266;51.522;6.302;2022-10-31T09:53:08;15.85;;;8.43;;
22201;SDS011;11266;51.522;6.302;2022-10-31T09:54:06;21.63;;;8.52;;
22201;SDS011;11266;51.522;6.302;2022-10-31T09:54:59;15.00;;;8.55;;
22201;SDS011;11266;51.522;6.302;2022-10-31T09:55:48;17.23;;;8.90;;
22201;SDS011;11266;51.522;6.302;2022-10-31T09:56:34;16.45;;;8.10;;
22201;SDS011;11266;51.522;6.302;2022-10-31T09:57:27;15.23;;;8.80;;
22201;SDS011;11266;51.522;6.302;2022-10-31T09:58:23;19.73;;;9.50;;
22201;SDS011;11266;51.522;6.302;2022-10-31T09:59:13;16.88;;;8.93;;
22201;SDS011;11266;51.522;6.302;2022-10-31T10:00:05;21.02;;;8.88;;
22201;SDS011;11266;51.522;6.302;2022-10-31T10:00:51;17.83;;;9.73;;
22201;SDS011;11266;51.522;6.302;2022-10-31T10:01:42;17.00;;;8.82;;
22201;SDS011;11266;51.522;6.302;2022-10-31T10:05:10;14.43;;;8.95;;
22201;SDS011;11266;51.522;6.302;2022-10-31T10:06:00;14.10;;;8.20;;
22201;SDS011;11266;51.522;6.302;2022-10-31T10:06:47;16.17;;;8.68;;
22201;SDS011;11266;51.522;6.302;2022-10-31T10:07:40;14.98;;;8.93;;
22201;SDS011;11266;51.522;6.302;2022-10-31T10:08:27;15.93;;;8.88;;
22201;SDS011;11266;51.522;6.302;2022-10-31T10:09:15;12.82;;;8.38;;
22201;SDS011;11266;51.522;6.302;2022-10-31T10:10:08;16.48;;;8.65;;
22201;SDS011;11266;51.522;6.302;2022-10-31T10:14:01;14.45;;;8.40;;
22201;SDS011;11266;51.522;6.302;2022-10-31T10:14:53;15.35;;;8.23;;
22201;SDS011;11266;51.522;6.302;2022-10-31T10:22:05;15.38;;;8.55;;
22201;SDS011;11266;51.522;6.302;2022-10-31T10:23:56;19.83;;;8.82;;
22201;SDS011;11266;51.522;6.302;2022-10-31T10:25:51;13.82;;;8.52;;
22201;SDS011;11266;51.522;6.302;2022-10-31T10:26:43;18.60;;;8.57;;
22201;SDS011;11266;51.522;6.302;2022-10-31T10:28:25;14.75;;;9.45;;
22201;SDS011;11266;51.522;6.302;2022-10-31T10:30:15;14.55;;;8.30;;
22201;SDS011;11266;51.522;6.302;2022-10-31T10:31:24;13.45;;;8.20;;
22201;SDS011;11266;51.522;6.302;2022-10-31T10:32:17;17.90;;;9.10;;
22201;SDS011;11266;51.522;6.302;2022-10-31T10:33:22;12.65;;;8.35;;
22201;SDS011;11266;51.522;6.302;2022-10-31T10:34:15;11.75;;;8.45;;
22201;SDS011;11266;51.522;6.302;2022-10-31T10:35:11;15.48;;;9.07;;
22201;SDS011;11266;51.522;6.302;2022-10-31T10:36:06;14.38;;;8.32;;
22201;SDS011;11266;51.522;6.302;2022-10-31T10:36:58;15.45;;;8.23;;
22201;SDS011;11266;51.522;6.302;2022-10-31T10:37:46;16.33;;;9.02;;
22201;SDS011;11266;51.522;6.302;2022-10-31T10:39:23;18.38;;;8.65;;
22201;SDS011;11266;51.522;6.302;2022-10-31T10:40:16;16.00;;;10.10;;
22201;SDS011;11266;51.522;6.302;2022-10-31T10:41:05;17.60;;;8.98;;
22201;SDS011;11266;51.522;6.302;2022-10-31T10:41:51;18.08;;;9.55;;
22201;SDS011;11266;51.522;6.302;2022-10-31T10:44:05;17.17;;;8.65;;
22201;SDS011;11266;51.522;6.302;2022-10-31T10:44:54;20.63;;;9.23;;
22201;SDS011;11266;51.522;6.302;2022-10-31T10:46:01;16.55;;;8.88;;
22201;SDS011;11266;51.522;6.302;2022-10-31T10:47:07;17.90;;;8.90;;
22201;SDS011;11266;51.522;6.302;2022-10-31T10:48:19;22.08;;;9.40;;
22201;SDS011;11266;51.522;6.302;2022-10-31T10:49:16;16.80;;;9.43;;
22201;SDS011;11266;51.522;6.302;2022-10-31T10:50:04;13.13;;;8.95;;
22201;SDS011;11266;51.522;6.302;2022-10-31T10:50:52;15.82;;;8.95;;
22201;SDS011;11266;51.522;6.302;2022-10-31T10:51:44;16.83;;;10.07;;
22201;SDS011;11266;51.522;6.302;2022-10-31T10:53:14;19.90;;;9.05;;
22201;SDS011;11266;51.522;6.302;2022-10-31T10:53:51;17.02;;;9.02;;
22201;SDS011;11266;51.522;6.302;2022-10-31T10:54:59;19.88;;;9.98;;
22201;SDS011;11266;51.522;6.302;2022-10-31T10:55:58;19.10;;;9.50;;
22201;SDS011;11266;51.522;6.302;2022-10-31T10:58:35;16.23;;;9.93;;
22201;SDS011;11266;51.522;6.302;2022-10-31T10:59:22;20.05;;;9.80;;
22201;SDS011;11266;51.522;6.302;2022-10-31T11:01:10;17.50;;;10.13;;
22201;SDS011;11266;51.522;6.302;2022-10-31T11:01:57;18.27;;;10.32;;
22201;SDS011;11266;51.522;6.302;2022-10-31T11:02:45;18.05;;;9.77;;
22201;SDS011;11266;51.522;6.302;2022-10-31T11:03:31;17.83;;;10.63;;
22201;SDS011;11266;51.522;6.302;2022-10-31T11:04:24;22.63;;;10.85;;
22201;SDS011;11266;51.522;6.302;2022-10-31T11:05:22;22.52;;;11.68;;
22201;SDS011;11266;51.522;6.302;2022-10-31T11:06:21;18.08;;;11.32;;
22201;SDS011;11266;51.522;6.302;2022-10-31T11:07:11;19.85;;;10.15;;
22201;SDS011;11266;51.522;6.302;2022-10-31T11:07:57;18.42;;;10.65;;
22201;SDS011;11266;51.522;6.302;2022-10-31T11:08:43;20.67;;;10.65;;
22201;SDS011;11266;51.522;6.302;2022-10-31T11:09:29;18.63;;;11.05;;
22201;SDS011;11266;51.522;6.302;2022-10-31T11:10:16;16.33;;;10.77;;
22201;SDS011;11266;51.522;6.302;2022-10-31T11:12:10;17.80;;;10.30;;
22201;SDS011;11266;51.522;6.302;2022-10-31T11:13:14;15.52;;;10.15;;
22201;SDS011;11266;51.522;6.302;2022-10-31T11:14:05;19.10;;;11.60;;
22201;SDS011;11266;51.522;6.302;2022-10-31T11:14:58;18.30;;;11.85;;
22201;SDS011;11266;51.522;6.302;2022-10-31T11:15:52;20.20;;;10.98;;
22201;SDS011;11266;51.522;6.302;2022-10-31T11:16:40;19.70;;;11.27;;
22201;SDS011;11266;51.522;6.302;2022-10-31T11:17:30;17.98;;;11.02;;
22201;SDS011;11266;51.522;6.302;2022-10-31T11:18:19;19.33;;;11.07;;
22201;SDS011;11266;51.522;6.302;2022-10-31T11:19:16;17.23;;;11.05;;
22201;SDS011;11266;51.522;6.302;2022-10-31T11:20:05;23.15;;;11.48;;
22201;SDS011;11266;51.522;6.302;2022-10-31T11:20:55;22.10;;;11.13;;
22201;SDS011;11266;51.522;6.302;2022-10-31T11:21:41;18.08;;;11.40;;
22201;SDS011;11266;51.522;6.302;2022-10-31T11:22:29;16.08;;;10.15;;
22201;SDS011;11266;51.522;6.302;2022-10-31T11:23:17;15.32;;;10.85;;
22201;SDS011;11266;51.522;6.302;2022-10-31T11:24:55;22.30;;;12.32;;
22201;SDS011;11266;51.522;6.302;2022-10-31T11:25:47;18.88;;;10.77;;
22201;SDS011;11266;51.522;6.302;2022-10-31T11:26:33;14.02;;;10.02;;
22201;SDS011;11266;51.522;6.302;2022-10-31T11:27:21;16.98;;;10.57;;
22201;SDS011;11266;51.522;6.302;2022-10-31T11:28:09;23.55;;;11.02;;
22201;SDS011;11266;51.522;6.302;2022-10-31T11:28:58;16.55;;;9.98;;
22201;SDS011;11266;51.522;6.302;2022-10-31T11:29:48;16.08;;;9.70;;
22201;SDS011;11266;51.522;6.302;2022-10-31T11:30:48;18.05;;;11.18;;
22201;SDS011;11266;51.522;6.302;2022-10-31T11:31:34;22.73;;;11.38;;
22201;SDS011;11266;51.522;6.302;2022-10-31T11:32:21;20.95;;;11.05;;